Terminal Aerodrome Forecast
Issued by NWS Houston/Galveston TX

Home | Current Version | Previous Version | Text Only | Print | Product List | Glossary On
Versions: 1 2 3 4 5 6 7 8 9 10 11 12 13 14 15 16 17 18 19 20 21 22 23 24 25 26 27 28 29 30 31 32 33 34 35 36 37
000
FTUS44 KHGX 061731
TAFHOU
TAF
KHOU 061731Z 0618/0718 24011KT P6SM SKC
     FM062000 30005KT P6SM SCT015 SCT035
      TEMPO 0621/0701 BKN020
     FM070100 34005KT P6SM SCT009 BKN020
     FM070700 33004KT 4SM BR SCT006 BKN015
     FM071600 VRB03KT 6SM BR SCT010 BKN020=

USA.gov is the U.S. government's official web portal to all federal, state and local government web resources and services.